sensor_id;sensor_type;location;lat;lon;timestamp;pressure;altitude;pressure_sealevel;temperature;humidity
9774;BME280;4926;42.670;23.316;2024-03-17T00:00:24;94776.91;;;8.08;66.74
9774;BME280;4926;42.670;23.316;2024-03-17T00:02:50;94767.16;;;8.07;65.50
9774;BME280;4926;42.670;23.316;2024-03-17T00:05:18;94773.41;;;8.08;66.03
9774;BME280;4926;42.670;23.316;2024-03-17T00:07:44;94772.69;;;8.07;66.37
9774;BME280;4926;42.670;23.316;2024-03-17T00:10:12;94767.81;;;8.06;66.73
9774;BME280;4926;42.670;23.316;2024-03-17T00:12:38;94767.84;;;8.08;65.87
9774;BME280;4926;42.670;23.316;2024-03-17T00:15:07;94773.25;;;8.02;65.66
9774;BME280;4926;42.670;23.316;2024-03-17T00:17:33;94770.44;;;8.00;66.41
9774;BME280;4926;42.670;23.316;2024-03-17T00:20:00;94768.25;;;7.96;66.79
9774;BME280;4926;42.670;23.316;2024-03-17T00:22:32;94770.16;;;7.90;66.85
9774;BME280;4926;42.670;23.316;2024-03-17T00:25:02;94768.69;;;7.87;67.07
9774;BME280;4926;42.670;23.316;2024-03-17T00:27:31;94761.53;;;7.77;67.57
9774;BME280;4926;42.670;23.316;2024-03-17T00:30:05;94764.25;;;7.75;67.16
9774;BME280;4926;42.670;23.316;2024-03-17T00:32:38;94762.78;;;7.72;67.52
9774;BME280;4926;42.670;23.316;2024-03-17T00:35:05;94762.09;;;7.72;67.09
9774;BME280;4926;42.670;23.316;2024-03-17T00:37:33;94757.94;;;7.73;67.13
9774;BME280;4926;42.670;23.316;2024-03-17T00:40:00;94754.41;;;7.70;66.29
9774;BME280;4926;42.670;23.316;2024-03-17T00:42:26;94755.72;;;7.67;66.24
9774;BME280;4926;42.670;23.316;2024-03-17T00:44:55;94752.13;;;7.63;66.58
9774;BME280;4926;42.670;23.316;2024-03-17T00:47:21;94763.22;;;7.63;66.98
9774;BME280;4926;42.670;23.316;2024-03-17T00:49:50;94757.53;;;7.57;68.18
9774;BME280;4926;42.670;23.316;2024-03-17T00:52:17;94763.44;;;7.45;67.17
9774;BME280;4926;42.670;23.316;2024-03-17T00:54:42;94767.63;;;7.46;68.10
9774;BME280;4926;42.670;23.316;2024-03-17T00:57:08;94762.09;;;7.46;67.99
9774;BME280;4926;42.670;23.316;2024-03-17T00:59:33;94763.44;;;7.45;67.96
9774;BME280;4926;42.670;23.316;2024-03-17T01:01:59;94762.13;;;7.48;68.37
9774;BME280;4926;42.670;23.316;2024-03-17T01:04:24;94763.50;;;7.47;67.26
9774;BME280;4926;42.670;23.316;2024-03-17T01:06:50;94758.06;;;7.51;66.66
9774;BME280;4926;42.670;23.316;2024-03-17T01:09:20;94767.75;;;7.50;67.00
9774;BME280;4926;42.670;23.316;2024-03-17T01:11:46;94761.56;;;7.52;67.24
9774;BME280;4926;42.670;23.316;2024-03-17T01:14:11;94766.66;;;7.61;66.63
9774;BME280;4926;42.670;23.316;2024-03-17T01:16:40;94767.09;;;7.52;67.63
9774;BME280;4926;42.670;23.316;2024-03-17T01:19:05;94766.44;;;7.53;66.72
9774;BME280;4926;42.670;23.316;2024-03-17T01:21:33;94762.31;;;7.54;67.25
9774;BME280;4926;42.670;23.316;2024-03-17T01:23:58;94763.81;;;7.59;66.69
9774;BME280;4926;42.670;23.316;2024-03-17T01:26:24;94765.84;;;7.57;67.24
9774;BME280;4926;42.670;23.316;2024-03-17T01:28:50;94769.88;;;7.52;67.70
9774;BME280;4926;42.670;23.316;2024-03-17T01:31:15;94762.09;;;7.46;67.04
9774;BME280;4926;42.670;23.316;2024-03-17T01:33:40;94763.41;;;7.43;66.98
9774;BME280;4926;42.670;23.316;2024-03-17T01:36:06;94764.13;;;7.43;67.28
9774;BME280;4926;42.670;23.316;2024-03-17T01:38:32;94764.59;;;7.36;68.14
9774;BME280;4926;42.670;23.316;2024-03-17T01:40:58;94772.25;;;7.37;68.13
9774;BME280;4926;42.670;23.316;2024-03-17T01:43:24;94761.66;;;7.30;68.24
9774;BME280;4926;42.670;23.316;2024-03-17T01:45:50;94761.66;;;7.30;68.51
9774;BME280;4926;42.670;23.316;2024-03-17T01:48:16;94759.47;;;7.26;67.84
9774;BME280;4926;42.670;23.316;2024-03-17T01:50:45;94759.41;;;7.24;68.59
9774;BME280;4926;42.670;23.316;2024-03-17T01:53:12;94757.88;;;7.19;68.52
9774;BME280;4926;42.670;23.316;2024-03-17T01:55:42;94760.59;;;7.17;68.15
9774;BME280;4926;42.670;23.316;2024-03-17T01:58:08;94759.94;;;7.19;68.24
9774;BME280;4926;42.670;23.316;2024-03-17T02:00:37;94761.47;;;7.24;68.87
9774;BME280;4926;42.670;23.316;2024-03-17T02:03:04;94759.47;;;7.26;69.22
9774;BME280;4926;42.670;23.316;2024-03-17T02:05:31;94753.09;;;7.22;67.47
9774;BME280;4926;42.670;23.316;2024-03-17T02:08:00;94760.25;;;7.29;68.20
9774;BME280;4926;42.670;23.316;2024-03-17T02:10:25;94753.28;;;7.28;68.30
9774;BME280;4926;42.670;23.316;2024-03-17T02:12:51;94759.53;;;7.28;67.67
9774;BME280;4926;42.670;23.316;2024-03-17T02:15:17;94755.28;;;7.25;67.87
9774;BME280;4926;42.670;23.316;2024-03-17T02:17:43;94755.06;;;7.17;67.59
9774;BME280;4926;42.670;23.316;2024-03-17T02:20:09;94763.34;;;7.15;68.04
9774;BME280;4926;42.670;23.316;2024-03-17T02:22:39;94758.38;;;7.11;68.16
9774;BME280;4926;42.670;23.316;2024-03-17T02:25:05;94758.97;;;7.08;68.14
9774;BME280;4926;42.670;23.316;2024-03-17T02:27:34;94766.03;;;7.13;68.02
9774;BME280;4926;42.670;23.316;2024-03-17T02:30:00;94761.22;;;7.14;68.25
9774;BME280;4926;42.670;23.316;2024-03-17T02:32:25;94765.28;;;7.10;68.92
9774;BME280;4926;42.670;23.316;2024-03-17T02:34:53;94757.09;;;7.15;68.95
9774;BME280;4926;42.670;23.316;2024-03-17T02:37:19;94750.66;;;7.08;69.12
9774;BME280;4926;42.670;23.316;2024-03-17T02:39:44;94761.91;;;7.14;67.91
9774;BME280;4926;42.670;23.316;2024-03-17T02:42:10;94759.09;;;7.12;68.81
9774;BME280;4926;42.670;23.316;2024-03-17T02:44:38;94752.94;;;7.16;68.31
9774;BME280;4926;42.670;23.316;2024-03-17T02:47:05;94755.06;;;7.17;68.87
9774;BME280;4926;42.670;23.316;2024-03-17T02:49:31;94757.94;;;7.21;68.11
9774;BME280;4926;42.670;23.316;2024-03-17T02:52:03;94755.94;;;7.24;67.82
9774;BME280;4926;42.670;23.316;2024-03-17T02:54:32;94755.88;;;7.22;68.23
9774;BME280;4926;42.670;23.316;2024-03-17T02:56:58;94749.63;;;7.21;68.02
9774;BME280;4926;42.670;23.316;2024-03-17T02:59:26;94753.63;;;7.16;68.79
9774;BME280;4926;42.670;23.316;2024-03-17T03:01:52;94753.63;;;7.16;68.01
9774;BME280;4926;42.670;23.316;2024-03-17T03:04:18;94752.97;;;7.18;67.44
9774;BME280;4926;42.670;23.316;2024-03-17T03:06:43;94747.44;;;7.18;68.29
9774;BME280;4926;42.670;23.316;2024-03-17T03:09:09;94741.88;;;7.16;68.22
9774;BME280;4926;42.670;23.316;2024-03-17T03:11:42;94745.28;;;7.14;67.76
9774;BME280;4926;42.670;23.316;2024-03-17T03:14:10;94749.09;;;7.03;68.39
9774;BME280;4926;42.670;23.316;2024-03-17T03:16:36;94746.34;;;7.03;68.09
9774;BME280;4926;42.670;23.316;2024-03-17T03:19:01;94748.41;;;7.02;69.35
9774;BME280;4926;42.670;23.316;2024-03-17T03:21:27;94743.16;;;6.89;68.68
9774;BME280;4926;42.670;23.316;2024-03-17T03:23:52;94745.66;;;6.79;69.79
9774;BME280;4926;42.670;23.316;2024-03-17T03:26:18;94744.34;;;6.58;70.75
9774;BME280;4926;42.670;23.316;2024-03-17T03:28:44;94744.06;;;6.71;70.35
9774;BME280;4926;42.670;23.316;2024-03-17T03:31:13;94744.22;;;6.78;69.83
9774;BME280;4926;42.670;23.316;2024-03-17T03:33:42;94753.38;;;6.82;69.29
9774;BME280;4926;42.670;23.316;2024-03-17T03:36:11;94757.69;;;6.87;69.90
9774;BME280;4926;42.670;23.316;2024-03-17T03:38:37;94749.31;;;6.85;69.59
9774;BME280;4926;42.670;23.316;2024-03-17T03:41:13;94754.22;;;6.87;69.91
9774;BME280;4926;42.670;23.316;2024-03-17T03:43:39;94758.28;;;6.84;69.53
9774;BME280;4926;42.670;23.316;2024-03-17T03:46:05;94755.56;;;6.86;69.49
9774;BME280;4926;42.670;23.316;2024-03-17T03:48:31;94761.16;;;6.88;70.00
9774;BME280;4926;42.670;23.316;2024-03-17T03:50:57;94761.63;;;6.80;69.01
9774;BME280;4926;42.670;23.316;2024-03-17T03:53:24;94766.53;;;6.82;69.50
9774;BME280;4926;42.670;23.316;2024-03-17T03:55:49;94768.06;;;6.87;69.30
9774;BME280;4926;42.670;23.316;2024-03-17T03:58:17;94768.09;;;6.89;68.52
9774;BME280;4926;42.670;23.316;2024-03-17T04:00:43;94766.72;;;6.88;69.52
9774;BME280;4926;42.670;23.316;2024-03-17T04:03:08;94774.47;;;6.93;68.37
9774;BME280;4926;42.670;23.316;2024-03-17T04:05:36;94768.09;;;6.89;69.46
9774;BME280;4926;42.670;23.316;2024-03-17T04:08:02;94772.28;;;6.66;68.76
9774;BME280;4926;42.670;23.316;2024-03-17T04:10:28;94781.59;;;6.53;69.93
9774;BME280;4926;42.670;23.316;2024-03-17T04:12:53;94776.50;;;6.45;69.96
9774;BME280;4926;42.670;23.316;2024-03-17T04:15:19;94776.19;;;6.35;71.16
9774;BME280;4926;42.670;23.316;2024-03-17T04:17:45;94778.06;;;6.28;71.36
9774;BME280;4926;42.670;23.316;2024-03-17T04:20:11;94774.97;;;6.40;71.34
9774;BME280;4926;42.670;23.316;2024-03-17T04:22:40;94782.09;;;6.47;71.50
9774;BME280;4926;42.670;23.316;2024-03-17T04:25:06;94787.69;;;6.49;69.78
9774;BME280;4926;42.670;23.316;2024-03-17T04:27:32;94794.97;;;6.60;69.59
9774;BME280;4926;42.670;23.316;2024-03-17T04:29:59;94789.66;;;6.45;69.81
9774;BME280;4926;42.670;23.316;2024-03-17T04:32:25;94786.28;;;6.48;70.44
9774;BME280;4926;42.670;23.316;2024-03-17T04:34:53;94798.91;;;6.53;70.43
9774;BME280;4926;42.670;23.316;2024-03-17T04:37:19;94797.03;;;6.38;70.87
9774;BME280;4926;42.670;23.316;2024-03-17T04:39:46;94801.16;;;6.37;70.08
9774;BME280;4926;42.670;23.316;2024-03-17T04:42:13;94804.25;;;6.47;70.41
9774;BME280;4926;42.670;23.316;2024-03-17T04:44:43;94801.63;;;6.51;70.20
9774;BME280;4926;42.670;23.316;2024-03-17T04:47:10;94800.47;;;6.58;70.15
9774;BME280;4926;42.670;23.316;2024-03-17T04:49:42;94813.00;;;6.61;70.32
9774;BME280;4926;42.670;23.316;2024-03-17T04:52:09;94813.34;;;6.50;70.21
9774;BME280;4926;42.670;23.316;2024-03-17T04:54:35;94811.34;;;6.52;70.45
9774;BME280;4926;42.670;23.316;2024-03-17T04:57:01;94817.91;;;6.41;70.91
9774;BME280;4926;42.670;23.316;2024-03-17T04:59:27;94820.16;;;6.25;70.59
9774;BME280;4926;42.670;23.316;2024-03-17T05:01:53;94826.75;;;5.94;71.80
9774;BME280;4926;42.670;23.316;2024-03-17T05:04:19;94825.53;;;5.79;73.63
9774;BME280;4926;42.670;23.316;2024-03-17T05:06:45;94820.06;;;5.81;73.90
9774;BME280;4926;42.670;23.316;2024-03-17T05:09:14;94832.72;;;5.86;73.63
9774;BME280;4926;42.670;23.316;2024-03-17T05:11:40;94827.59;;;5.98;73.66
9774;BME280;4926;42.670;23.316;2024-03-17T05:14:06;94842.31;;;6.03;72.98
9774;BME280;4926;42.670;23.316;2024-03-17T05:16:31;94843.59;;;6.22;71.93
9774;BME280;4926;42.670;23.316;2024-03-17T05:18:57;94849.66;;;6.38;71.30
9774;BME280;4926;42.670;23.316;2024-03-17T05:21:22;94845.22;;;6.51;71.65
9774;BME280;4926;42.670;23.316;2024-03-17T05:23:49;94842.78;;;6.61;71.68
9774;BME280;4926;42.670;23.316;2024-03-17T05:26:14;94853.47;;;6.70;70.93
9774;BME280;4926;42.670;23.316;2024-03-17T05:28:43;94853.66;;;6.76;70.54
9774;BME280;4926;42.670;23.316;2024-03-17T05:31:09;94855.66;;;6.74;70.49
9774;BME280;4926;42.670;23.316;2024-03-17T05:33:35;94851.09;;;6.83;70.54
9774;BME280;4926;42.670;23.316;2024-03-17T05:36:02;94856.28;;;6.94;69.16
9774;BME280;4926;42.670;23.316;2024-03-17T05:38:29;94854.59;;;7.07;68.68
9774;BME280;4926;42.670;23.316;2024-03-17T05:41:05;94845.03;;;7.12;68.10
9774;BME280;4926;42.670;23.316;2024-03-17T05:43:34;94845.09;;;7.14;69.86
9774;BME280;4926;42.670;23.316;2024-03-17T05:46:05;94857.72;;;7.19;68.63
9774;BME280;4926;42.670;23.316;2024-03-17T05:48:35;94851.59;;;7.23;68.53
9774;BME280;4926;42.670;23.316;2024-03-17T05:51:08;94854.41;;;7.25;68.54
9774;BME280;4926;42.670;23.316;2024-03-17T05:53:34;94847.47;;;7.24;67.99
9774;BME280;4926;42.670;23.316;2024-03-17T05:56:01;94845.63;;;7.08;68.06
9774;BME280;4926;42.670;23.316;2024-03-17T05:58:27;94841.50;;;7.09;69.33
9774;BME280;4926;42.670;23.316;2024-03-17T06:01:02;94853.13;;;7.28;68.41
9774;BME280;4926;42.670;23.316;2024-03-17T06:03:27;94856.34;;;7.44;68.79
9774;BME280;4926;42.670;23.316;2024-03-17T06:05:53;94854.66;;;7.57;66.80
9774;BME280;4926;42.670;23.316;2024-03-17T06:08:19;94860.13;;;7.55;67.62
9774;BME280;4926;42.670;23.316;2024-03-17T06:10:47;94862.34;;;7.60;67.58
9774;BME280;4926;42.670;23.316;2024-03-17T06:13:16;94865.53;;;7.74;66.29
9774;BME280;4926;42.670;23.316;2024-03-17T06:15:45;94865.22;;;7.88;66.24
9774;BME280;4926;42.670;23.316;2024-03-17T06:18:16;94869.06;;;8.03;65.42
9774;BME280;4926;42.670;23.316;2024-03-17T06:20:46;94871.31;;;8.08;65.89
9774;BME280;4926;42.670;23.316;2024-03-17T06:23:15;94870.06;;;8.13;65.05
9774;BME280;4926;42.670;23.316;2024-03-17T06:25:48;94870.66;;;8.36;64.23
9774;BME280;4926;42.670;23.316;2024-03-17T06:28:15;94875.34;;;8.57;63.48
9774;BME280;4926;42.670;23.316;2024-03-17T06:30:46;94879.84;;;8.70;63.02
9774;BME280;4926;42.670;23.316;2024-03-17T06:33:15;94874.09;;;8.62;62.47
9774;BME280;4926;42.670;23.316;2024-03-17T06:35:41;94880.28;;;8.88;62.18
9774;BME280;4926;42.670;23.316;2024-03-17T06:38:06;94886.97;;;9.07;61.68
9774;BME280;4926;42.670;23.316;2024-03-17T06:40:36;94883.59;;;9.13;61.71
9774;BME280;4926;42.670;23.316;2024-03-17T06:43:02;94894.53;;;9.35;61.13
9774;BME280;4926;42.670;23.316;2024-03-17T06:45:28;94886.38;;;9.43;60.59
9774;BME280;4926;42.670;23.316;2024-03-17T06:47:53;94890.97;;;9.62;60.53
9774;BME280;4926;42.670;23.316;2024-03-17T06:50:23;94898.16;;;9.73;59.72
9774;BME280;4926;42.670;23.316;2024-03-17T06:52:49;94893.00;;;9.93;58.85
9774;BME280;4926;42.670;23.316;2024-03-17T06:55:14;94894.59;;;10.05;58.41
9774;BME280;4926;42.670;23.316;2024-03-17T06:57:43;94893.63;;;10.26;57.34
9774;BME280;4926;42.670;23.316;2024-03-17T07:00:10;94890.34;;;10.36;57.25
9774;BME280;4926;42.670;23.316;2024-03-17T07:02:40;94890.63;;;10.54;56.80
9774;BME280;4926;42.670;23.316;2024-03-17T07:05:07;94894.84;;;10.55;55.99
9774;BME280;4926;42.670;23.316;2024-03-17T07:07:33;94899.81;;;10.60;56.48
9774;BME280;4926;42.670;23.316;2024-03-17T07:09:58;94894.56;;;10.79;55.52
9774;BME280;4926;42.670;23.316;2024-03-17T07:12:23;94893.50;;;11.00;54.66
9774;BME280;4926;42.670;23.316;2024-03-17T07:14:52;94891.72;;;11.19;54.21
9774;BME280;4926;42.670;23.316;2024-03-17T07:17:20;94894.03;;;11.34;54.36
9774;BME280;4926;42.670;23.316;2024-03-17T07:19:46;94892.16;;;11.51;53.43
9774;BME280;4926;42.670;23.316;2024-03-17T07:22:11;94891.09;;;11.75;52.43
9774;BME280;4926;42.670;23.316;2024-03-17T07:24:37;94892.06;;;11.95;51.89
9774;BME280;4926;42.670;23.316;2024-03-17T07:27:03;94897.84;;;12.12;50.85
9774;BME280;4926;42.670;23.316;2024-03-17T07:29:28;94891.97;;;11.87;51.60
9774;BME280;4926;42.670;23.316;2024-03-17T07:31:54;94890.81;;;11.54;52.08
9774;BME280;4926;42.670;23.316;2024-03-17T07:34:19;94887.00;;;11.31;52.36
9774;BME280;4926;42.670;23.316;2024-03-17T07:36:45;94889.03;;;11.27;52.88
9774;BME280;4926;42.670;23.316;2024-03-17T07:39:11;94889.44;;;11.07;53.33
9774;BME280;4926;42.670;23.316;2024-03-17T07:41:38;94893.69;;;11.12;53.03
9774;BME280;4926;42.670;23.316;2024-03-17T07:44:03;94894.25;;;11.02;53.38
9774;BME280;4926;42.670;23.316;2024-03-17T07:46:29;94896.13;;;10.90;54.27
9774;BME280;4926;42.670;23.316;2024-03-17T07:48:54;94898.84;;;10.86;54.37
9774;BME280;4926;42.670;23.316;2024-03-17T07:51:20;94898.28;;;10.53;54.64
9774;BME280;4926;42.670;23.316;2024-03-17T07:53:46;94903.75;;;10.09;55.79
9774;BME280;4926;42.670;23.316;2024-03-17T07:56:17;94893.88;;;10.04;55.82
9774;BME280;4926;42.670;23.316;2024-03-17T07:58:44;94899.59;;;10.12;56.00
9774;BME280;4926;42.670;23.316;2024-03-17T08:01:12;94900.41;;;10.17;56.66
9774;BME280;4926;42.670;23.316;2024-03-17T08:03:41;94901.63;;;10.08;56.26
9774;BME280;4926;42.670;23.316;2024-03-17T08:06:09;94899.81;;;9.86;57.72
9774;BME280;4926;42.670;23.316;2024-03-17T08:08:39;94895.59;;;9.51;57.90
9774;BME280;4926;42.670;23.316;2024-03-17T08:11:05;94891.13;;;9.70;58.02
9774;BME280;4926;42.670;23.316;2024-03-17T08:13:31;94895.53;;;9.81;57.21
9774;BME280;4926;42.670;23.316;2024-03-17T08:16:01;94891.44;;;9.86;57.33
9774;BME280;4926;42.670;23.316;2024-03-17T08:18:32;94898.75;;;10.04;56.93
9774;BME280;4926;42.670;23.316;2024-03-17T08:21:00;94892.75;;;10.17;55.90
9774;BME280;4926;42.670;23.316;2024-03-17T08:23:26;94885.47;;;10.36;55.40
9774;BME280;4926;42.670;23.316;2024-03-17T08:25:55;94882.28;;;10.54;55.01
9774;BME280;4926;42.670;23.316;2024-03-17T08:28:21;94893.81;;;10.76;54.13
9774;BME280;4926;42.670;23.316;2024-03-17T08:30:54;94889.94;;;10.93;53.70
9774;BME280;4926;42.670;23.316;2024-03-17T08:33:20;94891.50;;;11.05;53.53
9774;BME280;4926;42.670;23.316;2024-03-17T08:36:04;94884.66;;;11.14;52.92
9774;BME280;4926;42.670;23.316;2024-03-17T08:38:32;94887.78;;;11.38;51.98
9774;BME280;4926;42.670;23.316;2024-03-17T08:41:04;94884.63;;;11.62;51.17
9774;BME280;4926;42.670;23.316;2024-03-17T08:43:31;94881.28;;;11.73;51.20
9774;BME280;4926;42.670;23.316;2024-03-17T08:46:04;94876.09;;;12.04;50.06
9774;BME280;4926;42.670;23.316;2024-03-17T08:48:33;94873.00;;;11.80;50.00
9774;BME280;4926;42.670;23.316;2024-03-17T08:51:00;94870.28;;;11.84;50.76
9774;BME280;4926;42.670;23.316;2024-03-17T08:53:26;94871.47;;;12.29;50.18
9774;BME280;4926;42.670;23.316;2024-03-17T08:55:52;94870.84;;;12.34;49.51
9774;BME280;4926;42.670;23.316;2024-03-17T08:58:18;94865.47;;;12.57;49.37
9774;BME280;4926;42.670;23.316;2024-03-17T09:00:44;94867.63;;;12.62;48.88
9774;BME280;4926;42.670;23.316;2024-03-17T09:03:10;94857.25;;;12.75;48.54
9774;BME280;4926;42.670;23.316;2024-03-17T09:05:41;94858.75;;;12.92;48.80
9774;BME280;4926;42.670;23.316;2024-03-17T09:08:07;94862.69;;;13.49;47.94
9774;BME280;4926;42.670;23.316;2024-03-17T09:10:42;94864.31;;;13.95;46.75
9774;BME280;4926;42.670;23.316;2024-03-17T09:13:14;94864.34;;;13.99;46.13
9774;BME280;4926;42.670;23.316;2024-03-17T09:15:40;94855.38;;;14.49;46.08
9774;BME280;4926;42.670;23.316;2024-03-17T09:18:06;94858.22;;;14.90;44.09
9774;BME280;4926;42.670;23.316;2024-03-17T09:20:32;94847.00;;;15.16;42.71
9774;BME280;4926;42.670;23.316;2024-03-17T09:22:57;94853.28;;;15.47;42.75
9774;BME280;4926;42.670;23.316;2024-03-17T09:25:25;94846.09;;;16.07;42.05
9774;BME280;4926;42.670;23.316;2024-03-17T09:27:51;94854.25;;;16.58;38.78
9774;BME280;4926;42.670;23.316;2024-03-17T09:30:17;94842.19;;;16.80;38.54
9774;BME280;4926;42.670;23.316;2024-03-17T09:32:42;94838.75;;;16.69;38.99
9774;BME280;4926;42.670;23.316;2024-03-17T09:35:08;94834.50;;;16.70;38.90
9774;BME280;4926;42.670;23.316;2024-03-17T09:37:35;94836.47;;;16.90;37.80
9774;BME280;4926;42.670;23.316;2024-03-17T09:40:01;94823.50;;;17.23;37.30
9774;BME280;4926;42.670;23.316;2024-03-17T09:42:29;94805.13;;;17.28;36.10
9774;BME280;4926;42.670;23.316;2024-03-17T09:44:55;94827.34;;;17.65;35.31
9774;BME280;4926;42.670;23.316;2024-03-17T09:47:23;94829.28;;;17.81;35.13
9774;BME280;4926;42.670;23.316;2024-03-17T09:49:54;94833.94;;;18.06;33.57
9774;BME280;4926;42.670;23.316;2024-03-17T09:52:24;94838.16;;;18.63;31.65
9774;BME280;4926;42.670;23.316;2024-03-17T09:55:09;94821.84;;;19.10;30.48
9774;BME280;4926;42.670;23.316;2024-03-17T09:57:38;94842.28;;;19.15;31.01
9774;BME280;4926;42.670;23.316;2024-03-17T10:00:14;94837.84;;;18.81;29.49
9774;BME280;4926;42.670;23.316;2024-03-17T10:02:45;94826.91;;;18.01;29.41
9774;BME280;4926;42.670;23.316;2024-03-17T10:05:24;94833.69;;;17.61;30.36
9774;BME280;4926;42.670;23.316;2024-03-17T10:07:50;94833.03;;;17.59;30.85
9774;BME280;4926;42.670;23.316;2024-03-17T10:10:20;94822.16;;;17.14;34.06
9774;BME280;4926;42.670;23.316;2024-03-17T10:12:50;94821.75;;;16.81;33.99
9774;BME280;4926;42.670;23.316;2024-03-17T10:15:19;94829.91;;;16.10;34.40
9774;BME280;4926;42.670;23.316;2024-03-17T10:17:50;94824.28;;;16.12;34.63
9774;BME280;4926;42.670;23.316;2024-03-17T10:20:21;94826.78;;;16.69;34.13
9774;BME280;4926;42.670;23.316;2024-03-17T10:25:27;94821.84;;;16.67;34.02
9774;BME280;4926;42.670;23.316;2024-03-17T10:27:54;94830.22;;;16.77;33.45
9774;BME280;4926;42.670;23.316;2024-03-17T10:30:20;94825.44;;;16.55;34.34
9774;BME280;4926;42.670;23.316;2024-03-17T10:32:52;94829.00;;;16.48;33.21
9774;BME280;4926;42.670;23.316;2024-03-17T10:37:56;94829.84;;;16.22;32.98
9774;BME280;4926;42.670;23.316;2024-03-17T10:40:24;94820.09;;;16.01;32.21
9774;BME280;4926;42.670;23.316;2024-03-17T10:42:50;94827.19;;;15.87;32.31
9774;BME280;4926;42.670;23.316;2024-03-17T10:45:16;94821.53;;;15.93;31.52
9774;BME280;4926;42.670;23.316;2024-03-17T10:47:51;94818.03;;;15.89;29.73
9774;BME280;4926;42.670;23.316;2024-03-17T10:50:22;94826.50;;;15.85;28.62
9774;BME280;4926;42.670;23.316;2024-03-17T10:52:50;94815.31;;;15.69;29.69
9774;BME280;4926;42.670;23.316;2024-03-17T10:55:25;94821.69;;;15.57;30.60
9774;BME280;4926;42.670;23.316;2024-03-17T10:57:53;94817.44;;;15.46;30.45
9774;BME280;4926;42.670;23.316;2024-03-17T11:00:22;94813.22;;;15.51;33.17
9774;BME280;4926;42.670;23.316;2024-03-17T11:02:52;94809.00;;;15.60;34.60
9774;BME280;4926;42.670;23.316;2024-03-17T11:05:28;94807.59;;;15.47;34.67
9774;BME280;4926;42.670;23.316;2024-03-17T11:07:56;94802.03;;;15.31;34.30
9774;BME280;4926;42.670;23.316;2024-03-17T11:10:29;94800.66;;;15.25;35.49
9774;BME280;4926;42.670;23.316;2024-03-17T11:12:56;94804.88;;;15.14;35.64
9774;BME280;4926;42.670;23.316;2024-03-17T11:20:34;94796.44;;;15.16;37.34
9774;BME280;4926;42.670;23.316;2024-03-17T11:23:00;94789.41;;;15.23;37.63
9774;BME280;4926;42.670;23.316;2024-03-17T11:28:04;94788.00;;;15.16;37.65
9774;BME280;4926;42.670;23.316;2024-03-17T11:30:53;94789.44;;;14.95;37.88
9774;BME280;4926;42.670;23.316;2024-03-17T11:39:04;94786.97;;;16.15;34.71
9774;BME280;4926;42.670;23.316;2024-03-17T11:41:47;94774.78;;;16.53;33.31
9774;BME280;4926;42.670;23.316;2024-03-17T11:49:26;94782.31;;;18.14;30.17
9774;BME280;4926;42.670;23.316;2024-03-17T11:51:56;94779.78;;;18.45;29.42
9774;BME280;4926;42.670;23.316;2024-03-17T11:57:13;94764.97;;;18.92;28.15
9774;BME280;4926;42.670;23.316;2024-03-17T11:59:39;94763.03;;;19.21;26.98
9774;BME280;4926;42.670;23.316;2024-03-17T12:04:44;94757.66;;;19.05;28.06
9774;BME280;4926;42.670;23.316;2024-03-17T12:07:15;94761.31;;;18.52;28.21
9774;BME280;4926;42.670;23.316;2024-03-17T12:09:43;94765.31;;;18.20;29.07
9774;BME280;4926;42.670;23.316;2024-03-17T12:12:10;94760.41;;;18.17;28.91
9774;BME280;4926;42.670;23.316;2024-03-17T12:14:39;94770.63;;;17.91;28.99
9774;BME280;4926;42.670;23.316;2024-03-17T12:17:09;94768.03;;;17.71;29.72
9774;BME280;4926;42.670;23.316;2024-03-17T12:19:35;94756.47;;;17.32;30.40
9774;BME280;4926;42.670;23.316;2024-03-17T12:22:02;94752.53;;;17.07;30.97
9774;BME280;4926;42.670;23.316;2024-03-17T12:24:33;94762.25;;;17.18;30.49
9774;BME280;4926;42.670;23.316;2024-03-17T12:27:00;94753.69;;;16.50;32.47
9774;BME280;4926;42.670;23.316;2024-03-17T12:29:36;94766.56;;;16.17;33.34
9774;BME280;4926;42.670;23.316;2024-03-17T12:34:35;94763.34;;;15.55;36.47
9774;BME280;4926;42.670;23.316;2024-03-17T12:37:07;94755.66;;;15.32;37.28
9774;BME280;4926;42.670;23.316;2024-03-17T12:39:34;94768.38;;;15.04;38.01
9774;BME280;4926;42.670;23.316;2024-03-17T12:42:06;94765.59;;;14.80;38.97
9774;BME280;4926;42.670;23.316;2024-03-17T12:44:35;94752.97;;;14.77;39.40
9774;BME280;4926;42.670;23.316;2024-03-17T12:47:02;94755.78;;;14.81;38.81
9774;BME280;4926;42.670;23.316;2024-03-17T12:49:29;94743.16;;;14.70;39.13
9774;BME280;4926;42.670;23.316;2024-03-17T12:51:55;94751.56;;;14.86;39.19
9774;BME280;4926;42.670;23.316;2024-03-17T12:54:23;94749.44;;;14.90;39.93
9774;BME280;4926;42.670;23.316;2024-03-17T12:56:50;94744.56;;;14.67;40.22
9774;BME280;4926;42.670;23.316;2024-03-17T12:59:41;94748.75;;;14.66;41.01
9774;BME280;4926;42.670;23.316;2024-03-17T13:02:25;94737.56;;;14.58;41.57
9774;BME280;4926;42.670;23.316;2024-03-17T13:05:19;94740.38;;;14.45;42.32
9774;BME280;4926;42.670;23.316;2024-03-17T13:07:49;94751.56;;;14.51;42.29
9774;BME280;4926;42.670;23.316;2024-03-17T13:10:17;94743.88;;;14.58;42.16
9774;BME280;4926;42.670;23.316;2024-03-17T13:12:43;94747.38;;;14.50;42.54
9774;BME280;4926;42.670;23.316;2024-03-17T13:15:11;94740.31;;;14.35;43.00
9774;BME280;4926;42.670;23.316;2024-03-17T13:17:38;94745.22;;;14.16;43.08
9774;BME280;4926;42.670;23.316;2024-03-17T13:20:10;94745.94;;;14.17;43.52
9774;BME280;4926;42.670;23.316;2024-03-17T13:22:38;94742.41;;;14.08;43.58
9774;BME280;4926;42.670;23.316;2024-03-17T13:25:07;94745.19;;;14.08;44.30
9774;BME280;4926;42.670;23.316;2024-03-17T13:27:33;94743.09;;;14.11;44.75
9774;BME280;4926;42.670;23.316;2024-03-17T13:29:59;94743.09;;;14.07;44.83
9774;BME280;4926;42.670;23.316;2024-03-17T13:32:25;94741.66;;;13.92;45.05
9774;BME280;4926;42.670;23.316;2024-03-17T13:34:51;94743.72;;;13.71;45.67
9774;BME280;4926;42.670;23.316;2024-03-17T13:37:17;94738.78;;;13.61;45.38
9774;BME280;4926;42.670;23.316;2024-03-17T13:39:43;94744.41;;;13.71;45.87
9774;BME280;4926;42.670;23.316;2024-03-17T13:42:14;94738.06;;;13.63;45.67
9774;BME280;4926;42.670;23.316;2024-03-17T13:44:39;94745.03;;;13.52;45.32
9774;BME280;4926;42.670;23.316;2024-03-17T13:47:05;94738.69;;;13.39;45.09
9774;BME280;4926;42.670;23.316;2024-03-17T13:49:31;94742.09;;;13.17;45.95
9774;BME280;4926;42.670;23.316;2024-03-17T13:51:56;94742.78;;;13.16;46.33